Time;durP1;ratioP1;P1;durP2;ratioP2;P2;SDS_P1;SDS_P2;PMS_P1;PMS_P2;Temp;Humidity;BMP_temperature;BMP_pressure;BME280_temperature;BME280_humidity;BME280_pressure;Samples;Min_cycle;Max_cycle;Signal;HPM_P1;HPM_P2
2023/07/10 00:01:47;;;;;;;14.55;4.07;;;;;;;25.22;100.00;101012.91;21203327;27;20050;-76
2023/07/10 00:12:15;;;;;;;7.68;3.47;;;;;;;25.19;100.00;101013.06;21191704;27;20047;-75
2023/07/10 00:22:40;;;;;;;9.70;3.75;;;;;;;25.12;100.00;100998.91;21213750;27;20518;-75
2023/07/10 00:33:10;;;;;;;11.88;4.03;;;;;;;25.10;100.00;101006.19;21231354;27;20058;-75
2023/07/10 00:43:25;;;;;;;9.95;4.07;;;;;;;25.03;100.00;101015.47;21178804;27;20074;-75
2023/07/10 00:53:49;;;;;;;11.38;4.05;;;;;;;25.01;100.00;101003.84;21181886;27;20049;-74
2023/07/10 01:04:13;;;;;;;11.57;4.28;;;;;;;24.94;100.00;101010.47;21183094;27;20043;-75
2023/07/10 01:14:36;;;;;;;10.40;4.25;;;;;;;24.91;100.00;100991.66;21204919;27;20128;-75
2023/07/10 01:25:00;;;;;;;10.13;3.63;;;;;;;24.89;100.00;100988.09;21197925;27;20125;-75
2023/07/10 01:35:26;;;;;;;13.05;3.10;;;;;;;24.85;100.00;100991.88;21202152;27;20057;-75
2023/07/10 01:45:51;;;;;;;8.30;3.47;;;;;;;24.87;100.00;100995.41;21210678;27;20047;-75
2023/07/10 01:56:19;;;;;;;10.73;3.65;;;;;;;24.82;100.00;100998.28;21204830;27;20525;-75
2023/07/10 02:06:43;;;;;;;8.73;3.80;;;;;;;24.83;100.00;100983.81;21180734;27;20047;-74
2023/07/10 02:17:07;;;;;;;7.63;3.20;;;;;;;24.78;100.00;100976.84;21197618;27;20533;-75
2023/07/10 02:27:32;;;;;;;10.50;3.58;;;;;;;24.76;100.00;100992.22;21198320;27;20092;-75
2023/07/10 02:37:54;;;;;;;10.30;3.45;;;;;;;24.74;100.00;100986.91;21205687;27;20050;-75
2023/07/10 02:48:19;;;;;;;9.52;3.42;;;;;;;24.76;100.00;100976.03;21218456;27;20067;-75
2023/07/10 02:58:43;;;;;;;11.25;4.00;;;;;;;24.71;100.00;100960.00;21220698;27;20047;-75
2023/07/10 03:09:08;;;;;;;9.63;3.88;;;;;;;24.75;100.00;100968.84;21223425;27;20051;-75
2023/07/10 03:19:31;;;;;;;13.90;4.13;;;;;;;24.78;100.00;100988.53;21225281;27;20051;-75
2023/07/10 03:29:55;;;;;;;9.32;3.83;;;;;;;24.83;100.00;101012.66;21225929;27;20043;-75
2023/07/10 03:40:18;;;;;;;13.85;4.00;;;;;;;25.07;100.00;101000.03;21221720;27;20058;-76
2023/07/10 03:50:42;;;;;;;8.68;3.17;;;;;;;25.37;100.00;101017.69;21223019;27;20043;-75
2023/07/10 04:01:05;;;;;;;12.20;4.30;;;;;;;25.72;100.00;101044.19;21206069;27;20111;-75
2023/07/10 04:11:30;;;;;;;7.50;2.97;;;;;;;26.08;100.00;101052.53;21223408;27;20100;-76
2023/07/10 04:21:53;;;;;;;13.60;3.20;;;;;;;26.49;100.00;101060.66;21206279;27;20051;-76
2023/07/10 04:32:17;;;;;;;10.20;2.97;;;;;;;26.89;100.00;101060.63;21282415;27;20043;-75
2023/07/10 04:42:40;;;;;;;8.40;2.72;;;;;;;27.28;100.00;101084.06;21213805;27;20376;-76
2023/07/10 04:53:04;;;;;;;7.80;2.75;;;;;;;27.64;99.94;101093.13;21227504;27;20043;-75
2023/07/10 05:03:28;;;;;;;9.88;2.80;;;;;;;28.13;95.18;101093.34;21202410;27;20059;-76
2023/07/10 05:13:52;;;;;;;10.70;3.10;;;;;;;28.57;96.59;101098.28;21197319;27;20051;-76
2023/07/10 05:24:15;;;;;;;9.25;2.92;;;;;;;29.05;97.68;101106.53;21215037;27;20496;-76
2023/07/10 05:34:39;;;;;;;12.82;2.92;;;;;;;29.48;96.82;101121.31;21214200;27;20066;-76
2023/07/10 05:45:02;;;;;;;9.40;2.58;;;;;;;29.84;89.33;101115.59;21195997;27;20567;-75
2023/07/10 05:55:27;;;;;;;10.07;3.15;;;;;;;30.38;73.15;101127.81;21193278;27;20038;-76
2023/07/10 06:05:58;;;;;;;6.72;2.35;;;;;;;31.07;61.67;101118.09;21181322;27;20187;-76
2023/07/10 06:16:22;;;;;;;11.15;2.42;;;;;;;31.67;50.95;101115.97;21212234;27;20039;-76
2023/07/10 06:26:45;;;;;;;6.65;2.20;;;;;;;32.37;43.74;101108.44;21208010;27;20035;-76
2023/07/10 06:37:09;;;;;;;6.38;1.90;;;;;;;32.90;41.12;101098.31;21197172;27;20067;-76
2023/07/10 06:47:41;;;;;;;9.32;1.98;;;;;;;33.49;39.36;101110.38;21182693;27;20039;-76
2023/07/10 06:58:09;;;;;;;7.88;1.90;;;;;;;33.63;37.04;101110.22;21189966;27;20210;-75
2023/07/10 07:08:32;;;;;;;7.30;2.13;;;;;;;33.46;38.13;101105.16;21206797;27;20368;-76
2023/07/10 07:18:56;;;;;;;9.98;2.70;;;;;;;33.17;43.12;101131.88;21187648;27;20042;-76
2023/07/10 07:29:19;;;;;;;6.30;2.40;;;;;;;33.05;43.93;101133.66;21205291;27;20039;-75
2023/07/10 07:39:43;;;;;;;8.57;2.78;;;;;;;33.47;41.15;101153.47;21212158;27;20074;-75
2023/07/10 07:50:07;;;;;;;9.75;2.63;;;;;;;33.60;41.71;101152.44;21199881;27;20487;-75
2023/07/10 08:00:31;;;;;;;5.45;2.40;;;;;;;33.92;40.06;101154.66;21227302;27;20041;-75
2023/07/10 08:10:53;;;;;;;5.65;2.20;;;;;;;33.95;40.80;101173.59;21228480;27;20051;-75
2023/07/10 08:21:19;;;;;;;6.88;2.40;;;;;;;34.17;39.65;101161.88;21218735;27;20050;-75
2023/07/10 08:31:42;;;;;;;8.27;2.45;;;;;;;34.16;39.65;101152.75;21264904;27;20096;-74
2023/07/10 08:42:16;;;;;;;11.23;2.75;;;;;;;34.00;39.49;101153.06;21216181;27;20047;-74
2023/07/10 08:52:48;;;;;;;8.32;2.47;;;;;;;34.35;39.80;101157.72;21212630;27;20057;-76
2023/07/10 09:03:24;;;;;;;7.70;2.42;;;;;;;34.55;39.06;101147.94;21218523;27;20055;-76
2023/07/10 09:13:53;;;;;;;7.22;2.40;;;;;;;34.37;39.00;101162.13;21210324;27;20048;-75
2023/07/10 09:24:21;;;;;;;6.30;2.45;;;;;;;34.57;39.06;101154.19;21180317;27;20047;-75
2023/07/10 09:34:47;;;;;;;10.02;2.80;;;;;;;35.00;38.18;101144.31;21200233;27;20479;-75
2023/07/10 09:45:16;;;;;;;7.05;2.00;;;;;;;34.72;35.84;101159.34;21182990;27;20046;-75
2023/07/10 09:55:44;;;;;;;6.25;2.33;;;;;;;35.16;37.31;101168.66;21203477;27;20035;-73
2023/07/10 10:06:21;;;;;;;6.13;2.20;;;;;;;35.16;35.31;101146.69;21197340;27;20100;-74
2023/07/10 10:16:51;;;;;;;7.25;2.30;;;;;;;34.96;35.78;101147.44;21199865;27;20053;-74
2023/07/10 10:27:27;;;;;;;8.38;2.20;;;;;;;34.96;35.85;101155.66;21211476;27;20078;-73
2023/07/10 10:38:02;;;;;;;8.05;2.13;;;;;;;34.80;36.01;101147.78;21213730;27;20445;-73
2023/07/10 10:48:15;;;;;;;5.60;2.23;;;;;;;35.05;35.05;101147.56;21206268;27;20047;-74
2023/07/10 10:58:33;;;;;;;7.60;2.00;;;;;;;35.21;34.54;101139.00;21206417;27;20292;-75
2023/07/10 11:09:00;;;;;;;8.27;2.10;;;;;;;35.51;33.84;101113.63;21197534;27;20048;-74
2023/07/10 11:19:27;;;;;;;7.65;2.58;;;;;;;35.65;33.10;101098.69;21144716;27;20070;-74
2023/07/10 11:29:58;;;;;;;4.40;1.92;;;;;;;35.27;33.40;101094.53;21132849;27;20051;-74
2023/07/10 11:40:50;;;;;;;6.72;1.83;;;;;;;35.05;34.18;101064.34;21159608;28;20545;-73
2023/07/10 11:51:26;;;;;;;6.82;2.90;;;;;;;34.42;36.84;101024.63;21145175;27;20043;-74
2023/07/10 12:01:34;;;;;;;6.22;2.53;;;;;;;33.78;38.51;100958.41;21152514;27;20040;-74
2023/07/10 12:11:58;;;;;;;12.65;2.67;;;;;;;33.56;41.52;100988.41;21152792;27;20122;-75
2023/07/10 12:22:23;;;;;;;9.95;2.42;;;;;;;33.59;43.06;101011.00;21218982;27;20646;-75
2023/07/10 12:32:48;;;;;;;7.05;2.30;;;;;;;33.94;42.82;101026.56;21217139;27;20096;-77
2023/07/10 12:43:22;;;;;;;8.10;2.47;;;;;;;34.23;43.00;101000.53;21212883;27;20586;-76
2023/07/10 12:53:31;;;;;;;7.10;2.08;;;;;;;34.28;42.26;100956.28;21232149;27;20044;-76
2023/07/10 13:04:07;;;;;;;6.13;2.10;;;;;;;34.20;42.31;100991.66;21223112;27;20043;-76
2023/07/10 13:14:35;;;;;;;9.02;2.63;;;;;;;34.05;41.14;100971.81;21192754;27;20054;-76
2023/07/10 13:24:58;;;;;;;10.93;2.33;;;;;;;34.03;40.90;100949.13;21223472;27;20105;-76
2023/07/10 13:35:22;;;;;;;8.05;2.58;;;;;;;33.74;40.88;100956.88;21195648;27;20051;-75
2023/07/10 13:45:46;;;;;;;8.18;2.40;;;;;;;33.41;42.05;100975.94;21179558;27;20097;-77
2023/07/10 13:56:15;;;;;;;9.43;2.53;;;;;;;33.32;42.56;100968.41;21171458;27;20659;-76
2023/07/10 14:06:40;;;;;;;8.35;2.70;;;;;;;33.34;42.73;100967.31;21201119;27;20168;-76
2023/07/10 14:17:04;;;;;;;6.97;2.80;;;;;;;33.32;42.97;100974.75;21171524;27;20057;-76
2023/07/10 14:27:28;;;;;;;8.48;2.33;;;;;;;33.28;44.39;100984.16;21137495;28;20052;-74
2023/07/10 14:37:33;;;;;;;9.43;2.80;;;;;;;33.47;45.13;100969.97;21055228;28;20487;-76
2023/07/10 14:47:37;;;;;;;9.13;2.40;;;;;;;33.38;46.02;100948.78;21078952;28;20100;-76
2023/07/10 14:58:01;;;;;;;8.90;2.90;;;;;;;33.07;47.84;100964.75;21065546;28;20296;-76
2023/07/10 15:08:29;;;;;;;9.15;2.33;;;;;;;32.68;47.79;100973.19;21100386;28;20231;-76
2023/07/10 15:18:53;;;;;;;11.13;2.55;;;;;;;32.05;46.66;100980.38;21183539;27;20048;-76
2023/07/10 15:29:16;;;;;;;5.03;2.10;;;;;;;31.54;47.08;100960.25;21133752;28;20056;-77
2023/07/10 15:39:41;;;;;;;14.23;4.25;;;;;;;31.12;49.86;100968.59;21132508;28;20060;-77
2023/07/10 15:50:04;;;;;;;7.43;2.47;;;;;;;30.44;54.60;100973.94;21181616;28;20051;-76
2023/07/10 16:00:34;;;;;;;10.02;3.10;;;;;;;29.82;58.46;100950.56;21162164;27;20062;-76
2023/07/10 16:11:00;;;;;;;6.00;2.72;;;;;;;29.41;60.09;100956.66;21146305;27;20039;-76
2023/07/10 16:21:25;;;;;;;8.00;2.72;;;;;;;29.20;60.80;100958.81;21141932;27;20050;-75
2023/07/10 16:31:49;;;;;;;10.43;2.92;;;;;;;28.98;61.52;100966.44;21167488;27;20067;-75
2023/07/10 16:42:16;;;;;;;14.02;3.45;;;;;;;28.83;73.11;100983.63;21210464;27;20462;-75
2023/07/10 16:52:33;;;;;;;9.68;3.30;;;;;;;28.61;78.94;101007.50;21192699;27;20055;-75
2023/07/10 17:02:59;;;;;;;10.23;3.17;;;;;;;28.34;74.64;101008.06;21165119;27;20092;-75
2023/07/10 17:13:25;;;;;;;6.57;3.08;;;;;;;28.25;79.06;100967.81;21155496;27;20525;-77
2023/07/10 17:23:49;;;;;;;7.57;3.05;;;;;;;27.99;84.71;100982.75;21156061;27;20043;-75
2023/07/10 17:33:55;;;;;;;12.20;4.05;;;;;;;27.81;89.47;101004.56;21231989;27;20107;-77
2023/07/10 17:44:23;;;;;;;9.15;3.95;;;;;;;27.71;93.09;100999.59;21143832;27;20040;-76
2023/07/10 17:54:45;;;;;;;;;;;;;;;27.50;97.01;100970.84;21180178;27;20054;-76
2023/07/10 18:05:17;;;;;;;12.30;4.18;;;;;;;27.36;99.67;100978.81;21152786;27;19964;-76
2023/07/10 18:15:40;;;;;;;11.55;3.95;;;;;;;27.31;100.00;100975.41;21184067;27;20054;-75
2023/07/10 18:26:05;;;;;;;12.18;4.28;;;;;;;27.24;100.00;100992.97;21210842;27;20051;-75
2023/07/10 18:36:29;;;;;;;10.88;3.97;;;;;;;27.13;100.00;100979.94;21165867;27;20043;-75
2023/07/10 18:46:53;;;;;;;11.20;3.75;;;;;;;27.03;100.00;100999.44;21143962;28;20043;-76
2023/07/10 18:57:16;;;;;;;9.90;4.32;;;;;;;26.99;100.00;101006.84;21155415;27;20105;-75
2023/07/10 19:07:40;;;;;;;7.65;3.72;;;;;;;27.00;99.40;101015.84;21147341;27;20403;-74
2023/07/10 19:18:04;;;;;;;9.85;4.03;;;;;;;26.94;100.00;101020.63;21190121;27;20055;-75
2023/07/10 19:28:28;;;;;;;9.38;4.18;;;;;;;26.87;100.00;101010.97;21182487;27;20483;-76
2023/07/10 19:38:51;;;;;;;12.02;3.60;;;;;;;26.78;100.00;101006.00;21157571;27;20055;-76
2023/07/10 19:49:18;;;;;;;11.00;3.60;;;;;;;26.73;100.00;101029.72;21200681;27;20441;-76
2023/07/10 19:59:41;;;;;;;10.80;4.40;;;;;;;26.72;100.00;101027.06;21161915;27;20051;-76
2023/07/10 20:10:05;;;;;;;8.20;3.75;;;;;;;26.65;98.01;101026.47;21181526;27;20465;-76
2023/07/10 20:20:39;;;;;;;9.40;4.03;;;;;;;26.61;96.00;101032.13;21166767;27;20498;-76
2023/07/10 20:31:04;;;;;;;10.40;3.90;;;;;;;26.54;100.00;101031.53;21200907;27;20144;-75
2023/07/10 20:41:29;;;;;;;9.70;3.85;;;;;;;26.50;100.00;101028.09;21179764;27;20055;-76
2023/07/10 20:51:54;;;;;;;10.52;4.00;;;;;;;26.44;100.00;101039.22;21163614;27;20142;-75
2023/07/10 21:02:17;;;;;;;12.65;4.05;;;;;;;26.40;100.00;101034.88;21242524;27;20053;-76
2023/07/10 21:12:35;;;;;;;10.90;3.95;;;;;;;26.31;100.00;101021.78;21239818;27;20533;-75
2023/07/10 21:22:57;;;;;;;13.15;3.83;;;;;;;26.24;100.00;101027.50;21152016;27;20058;-75
2023/07/10 21:33:23;;;;;;;9.50;4.07;;;;;;;26.16;100.00;101034.13;21193265;27;20040;-75
2023/07/10 21:43:48;;;;;;;10.77;4.10;;;;;;;26.07;100.00;101029.09;21167225;27;20055;-75
2023/07/10 21:54:13;;;;;;;9.73;3.72;;;;;;;26.02;100.00;101031.16;21177234;27;20385;-75
2023/07/10 22:04:35;;;;;;;12.77;4.63;;;;;;;25.93;100.00;101011.75;21203794;27;20047;-75
2023/07/10 22:14:39;;;;;;;8.93;4.10;;;;;;;25.90;100.00;101020.88;21200953;27;20066;-75
2023/07/10 22:25:02;;;;;;;8.48;4.00;;;;;;;25.92;100.00;101023.50;21188490;27;20435;-75
2023/07/10 22:35:26;;;;;;;10.27;3.78;;;;;;;25.88;100.00;101020.03;21185789;27;20381;-75
2023/07/10 22:45:49;;;;;;;11.02;4.15;;;;;;;25.81;100.00;101015.84;21170229;27;20078;-75
2023/07/10 22:56:16;;;;;;;7.13;3.95;;;;;;;25.77;100.00;101000.69;21153569;28;20043;-75
2023/07/10 23:06:39;;;;;;;12.07;5.07;;;;;;;25.67;100.00;101002.03;21194809;27;20135;-75
2023/07/10 23:17:03;;;;;;;12.80;4.25;;;;;;;25.62;100.00;101004.06;21217741;27;20058;-76
2023/07/10 23:27:25;;;;;;;10.15;3.90;;;;;;;25.54;100.00;101004.34;21234658;27;20051;-75
2023/07/10 23:37:50;;;;;;;10.73;4.20;;;;;;;25.47;100.00;100999.28;21216366;27;20487;-75
2023/07/10 23:48:13;;;;;;;13.13;4.40;;;;;;;25.46;100.00;100984.88;21197350;27;20081;-75
2023/07/10 23:58:38;;;;;;;11.77;4.10;;;;;;;25.48;100.00;100984.78;21166512;27;20506;-75
